Aérodrome :
LOGIN :

S'inscrire | Disclaimer

   EN    FR    IT 

 










Légende :    VFR   VFR Marginal   IFR   IFR Intensif   IFR Très Intensif
Visi : 
Plafond : 
>= 8 km
>= 3000ft
5 à 8 km
1000 à 3000 ft
1500m à 5 km
500 à 1000 ft
800 à 1500m
200 à 500 ft
< 800m
< 200 ft
Symboles :   Orages  Brouillard  Fortes neiges  Fortes précipitations  Vent > 20 kt
SIGMETs :   Divers  Orages  Givrage  Turbulence  Onde Orograph.  Cendres Volcan.







- Altitude de l'aérodrome : 245 ft
- Code IATA : BIQ
- Voir les cartes d'approche


LFBZ - Biarritz

DERNIER METAR :
  • 221200Z AUTO 35008KT 310V020 5000 BR BKN015 BKN100 05/01 Q1014 NOSIG

METARs EXPIRÉS :
  • 221130Z AUTO 34009KT 5000 BR BKN014 BKN100 BKN220 05/02 Q1014 BECMG NSC
  • 221100Z AUTO 36006KT 320V050 5000 BR SCT017 SCT094 BKN110 05/01 Q1015 NOSIG
  • 221030Z AUTO 36004KT 300V050 5000 BR FEW018 05/01 Q1015 NOSIG
  • 221000Z AUTO 36003KT 300V080 6000 BKN016 BKN160 04/00 Q1015 TEMPO 4500 BR
  • 220930Z AUTO 00000KT 6000 OVC014 04/00 Q1015 BECMG NSC

TAF TAF LFBZ
Valide du 22 à 12h jusqu'au 23 à 12h UTC


221100Z 2212/2312 34005KT 8000 SCT015
BECMG 2212/2214 CAVOK
PROB40
TEMPO 2300/2306 1500 MIFG
Pas de NOTAMs connus pour ce terrain.
1 SIGMET publié pour la FIR Bordeaux (LFBB) :
 
Turbulence forte
LFBB SIGMET 4 VALID 221100/221500 LFPW
LFBB BORDEAUX FIR/UIR SEV TURB FCST E OF LINE N4230 E00030 - N4715 E00145 FL160/260 MOV W 5KT NC=



MET'MAP, la Météo Aéronautique d'un coup d'oeil ! - Copyright ORBIFLY Décembre 2007 - Disclaimer

ORBIFLY MET'MAP TEAM :

Programmation & Développement : Alexandra Zaïnal
Conception & Développement : Baudouin d'Aumeries
Co-Programmation & Développement : Marc-Olivier Méhu
Soutien technique & logistique : Manuel Goepfert

Contact : metmap@orbifly.com




SOURCES & CREDITS :

   NOAA